HADYOS Weather Reports


time (UTC)temp
C
wind
direction
speed
KPH
gust
KPH
rain 1hr
cm
rain 24hr
cm
rain mn
cm
humidity
%
barometer
mb
20260505152705 15 67 8.0 35.4 0.00 0.00 0.00 59 1014.9
20260505151805 16 79 8.0 25.7 0.00 0.00 0.00 55 1014.7
20260505150903 16 48 8.0 25.7 0.00 0.00 0.00 53 1014.5
20260505124503 18 81 8.0 24.1 0.00 0.00 0.00 46 1014.6
20260505123605 18 31 8.0 24.1 0.00 0.00 0.00 47 1015.1
20260505122703 18 94 6.4 29.0 0.00 0.00 0.00 45 1015.1
20260505121805 18 80 6.4 20.9 0.00 0.00 0.00 45 1015.4
20260505120903 19 85 4.8 16.1 0.00 0.00 0.00 44 1015.8
20260505120004 19 28 6.4 20.9 0.00 0.00 0.00 44 1015.8
20260505115405 19 47 4.8 19.3 0.00 0.00 0.00 43 1015.7
20260505114503 19 80 3.2 14.5 0.00 0.00 0.00 44 1016.0
20260505113605 18 101 3.2 12.9 0.00 0.00 0.00 45 1016.0
20260505112703 18 351 6.4 19.3 0.00 0.00 0.00 46 1016.1
20260505111805 18 357 4.8 20.9 0.00 0.00 0.00 45 1016.0
20260505110903 18 53 1.6 14.5 0.00 0.00 0.00 47 1016.1
20260505101803 18 24 4.8 14.5 0.00 0.00 0.00 49 1016.5
20260505100903 18 344 6.4 20.9 0.00 0.00 0.00 49 1016.4
20260505100005 18 348 4.8 19.3 0.00 0.00 0.00 46 1016.1
20260505095616 18 357 4.8 14.5 0.00 0.00 0.00 45 1016.3
20260505094505 18 8 4.8 20.9 0.00 0.00 0.00 44 1016.5
20260505093603 18 43 3.2 11.3 0.00 0.00 0.00 43 1016.5
20260505092705 18 50 3.2 14.5 0.00 0.00 0.00 43 1016.5
20260505091803 19 78 3.2 11.3 0.00 0.00 0.00 40 1016.5
20260505090903 19 77 3.2 16.1 0.00 0.00 0.00 40 1016.4
20260505090005 18 74 3.2 12.9 0.00 0.00 0.00 39 1016.3
20260505085403 18 89 3.2 11.3 0.00 0.00 0.00 42 1016.3
20260505084505 18 56 3.2 19.3 0.00 0.00 0.00 45 1016.4
20260505083604 18 90 3.2 12.9 0.00 0.00 0.00 46 1016.4
20260505082706 18 90 1.6 16.1 0.00 0.00 0.00 47 1016.5
20260505081804 17 86 3.2 16.1 0.00 0.00 0.00 49 1016.5
20260505080903 17 68 3.2 16.1 0.00 0.00 0.00 48 1016.7
20260505080005 18 57 3.2 17.7 0.00 0.00 0.00 47 1016.6
20260505075403 18 56 3.2 17.7 0.00 0.00 0.00 47 1016.5
20260505074503 18 88 3.2 14.5 0.00 0.00 0.00 48 1016.3
20260505073603 18 84 3.2 14.5 0.00 0.00 0.00 49 1016.4
20260505072914 17 70 4.8 17.7 0.00 0.00 0.00 48 1016.5
20260505071803 17 47 1.6 11.3 0.00 0.00 0.00 48 1016.5
20260505070903 17 79 3.2 19.3 0.00 0.00 0.00 51 1016.7
20260505070216 17 76 3.2 19.3 0.00 0.00 0.00 54 1016.7
20260505065404 17 89 3.2 16.1 0.00 0.00 0.00 55 1016.6
20260505064503 17 47 1.6 9.7 0.00 0.00 0.00 54 1016.6
20260505063603 16 107 3.2 14.5 0.00 0.00 0.00 55 1016.5
20260505062703 16 105 1.6 11.3 0.00 0.00 0.00 55 1016.4
20260505061804 16 81 3.2 14.5 0.00 0.00 0.00 55 1016.3
20260505060903 16 75 1.6 9.7 0.00 0.00 0.00 55 1016.4
20260505060217 16 337 1.6 11.3 0.00 0.00 0.00 57 1016.5
20260505055404 16 351 1.6 12.9 0.00 0.00 0.00 58 1016.3
20260505054503 15 56 1.6 12.9 0.00 0.00 0.00 59 1016.2
20260505053604 15 336 1.6 17.7 0.00 0.00 0.00 61 1016.1
20260505052703 15 89 3.2 12.9 0.00 0.00 0.00 63 1016.0
20260505051803 15 54 4.8 20.9 0.00 0.00 0.00 61 1016.1
20260505050904 15 98 3.2 17.7 0.00 0.00 0.00 62 1016.1
20260505040904 13 349 1.6 11.3 0.00 0.00 0.00 68 1015.8
20260505040005 13 353 1.6 11.3 0.00 0.00 0.00 69 1015.7
20260505035403 13 112 0.0 11.3 0.00 0.00 0.00 70 1015.7
20260505034504 12 338 1.6 11.3 0.00 0.00 0.00 71 1015.6
20260505033604 12 42 0.0 6.4 0.00 0.00 0.00 72 1015.4
20260505032703 12 99 1.6 11.3 0.00 0.00 0.00 72 1015.4
20260505031803 12 74 1.6 11.3 0.00 0.00 0.00 72 1015.3
20260505030904 11 21 1.6 8.0 0.00 0.00 0.00 73 1015.3
20260505030007 11 60 1.6 8.0 0.00 0.00 0.00 73 1015.3
20260505025404 11 86 1.6 9.7 0.00 0.00 0.00 73 1015.3
20260505024505 11 77 1.6 9.7 0.00 0.00 0.00 74 1015.3
20260505023604 11 91 1.6 11.3 0.00 0.00 0.00 74 1015.2
20260505022705 11 84 1.6 14.5 0.00 0.00 0.00 74 1015.2
20260505022014 11 82 1.6 11.3 0.00 0.00 0.00 74 1015.3
20260505020904 12 68 1.6 9.7 0.00 0.00 0.00 74 1015.4
20260505020007 12 77 1.6 9.7 0.00 0.00 0.00 74 1015.5
20260505015404 12 97 0.0 8.0 0.00 0.00 0.00 74 1015.5
20260505014504 12 108 1.6 11.3 0.00 0.00 0.00 74 1015.6
20260505013604 12 77 1.6 11.3 0.00 0.00 0.00 74 1015.6
20260505012704 12 75 1.6 9.7 0.00 0.00 0.00 75 1015.6
20260505011804 12 80 0.0 4.8 0.00 0.00 0.00 75 1015.6
20260505010903 12 60 1.6 8.0 0.00 0.00 0.00 76 1015.6
20260505010004 12 87 1.6 11.3 0.00 0.00 0.00 76 1015.6
20260505005616 12 85 1.6 11.3 0.00 0.00 0.00 76 1015.5
20260505004713 12 40 1.6 8.0 0.00 0.00 0.00 75 1015.6
20260505003603 12 51 1.6 12.9 0.00 0.00 0.00 75 1015.6
20260505002703 12 89 1.6 9.7 0.00 0.00 0.00 73 1015.6
20260505001803 12 51 0.0 4.8 0.00 0.00 0.00 72 1015.9
20260505000903 12 132 0.0 3.2 0.00 0.00 0.00 72 1015.8
20260505000004 12 76 1.6 9.7 0.00 0.00 0.00 72 1015.7
20260504235617 12 66 1.6 9.7 0.00 0.00 0.00 72 1015.7
20260504234503 12 326 1.6 14.5 0.00 0.00 0.00 71 1015.8
20260504233603 12 3 1.6 9.7 0.00 0.00 0.00 71 1016.0
20260504232703 12 87 3.2 17.7 0.00 0.00 0.00 70 1015.9
20260504231803 12 81 4.8 14.5 0.00 0.00 0.00 70 1015.5
20260504230903 12 96 3.2 12.9 0.00 0.00 0.00 70 1015.4
20260504230004 12 105 4.8 24.1 0.00 0.00 0.00 70 1015.4
20260504225403 12 99 4.8 24.1 0.00 0.00 0.00 69 1015.5
20260504224503 12 101 4.8 16.1 0.00 0.00 0.00 68 1015.5
20260504223603 12 105 4.8 17.7 0.00 0.00 0.00 67 1015.6
20260504222703 12 98 4.8 14.5 0.00 0.00 0.00 68 1015.9
20260504222017 12 102 4.8 19.3 0.00 0.00 0.00 68 1016.2
20260504221114 12 95 4.8 12.9 0.00 0.00 0.00 69 1016.3
20260504220004 12 110 4.8 16.1 0.00 0.00 0.00 70 1016.4
20260504215403 12 118 3.2 8.0 0.00 0.00 0.00 70 1016.4
20260504214503 12 112 3.2 12.9 0.00 0.00 0.00 70 1016.6
20260504213603 12 94 3.2 17.7 0.00 0.00 0.00 69 1016.6
20260504212915 12 76 4.8 20.9 0.00 0.00 0.00 69 1016.8
20260504211803 12 97 4.8 19.3 0.00 0.00 0.00 71 1016.6
20260504210903 12 95 3.2 19.3 0.00 0.00 0.00 72 1017.0
20260504210006 12 90 4.8 19.3 0.00 0.00 0.00 72 1016.8
20260504205614 13 88 4.8 19.3 0.00 0.00 0.00 72 1016.9
20260504204503 13 96 3.2 16.1 0.00 0.00 0.00 72 1016.9
20260504203603 13 98 3.2 11.3 0.00 0.00 0.00 72 1017.1
20260504202703 13 116 3.2 11.3 0.00 0.00 0.00 71 1017.3
20260504201803 13 99 3.2 12.9 0.00 0.00 0.00 71 1017.3
20260504201116 13 87 1.6 11.3 0.00 0.00 0.00 71 1017.3
20260504200218 13 60 1.6 12.9 0.00 0.00 0.00 71 1017.5
20260504195403 13 70 1.6 12.9 0.00 0.00 0.00 71 1017.5
20260504194503 13 82 1.6 11.3 0.00 0.00 0.00 71 1017.5
20260504193814 13 34 3.2 11.3 0.00 0.00 0.00 71 1017.4
20260504192917 13 70 1.6 9.7 0.00 0.00 0.00 72 1017.7
20260504191803 13 112 1.6 8.0 0.00 0.00 0.00 71 1017.7
20260504190903 13 67 1.6 9.7 0.00 0.00 0.00 72 1017.6
20260504190004 13 61 1.6 17.7 0.00 0.00 0.00 72 1017.6
20260504185615 13 63 1.6 17.7 0.00 0.00 0.00 72 1017.5
20260504184503 13 98 3.2 12.9 0.00 0.00 0.00 71 1017.3
20260504183603 13 79 1.6 8.0 0.00 0.00 0.00 72 1017.3
20260504182703 13 351 3.2 16.1 0.00 0.00 0.00 72 1017.3
20260504181804 13 354 4.8 17.7 0.00 0.00 0.00 73 1017.2
20260504180905 13 14 4.8 16.1 0.00 0.00 0.00 73 1017.0
20260504180005 13 353 4.8 17.7 0.00 0.00 0.00 73 1017.2
20260504175405 13 349 3.2 14.5 0.00 0.00 0.00 71 1017.2
20260504174505 13 345 4.8 16.1 0.00 0.00 0.00 71 1017.2
20260504173605 14 332 3.2 19.3 0.00 0.00 0.00 71 1017.1
20260504172705 14 354 4.8 16.1 0.00 0.00 0.00 71 1016.6
20260504171803 14 21 1.6 8.0 0.00 0.00 0.00 70 1016.8
20260504170903 14 354 3.2 17.7 0.00 0.00 0.00 69 1016.7